sensor_id;sensor_type;location;lat;lon;timestamp;pressure;altitude;pressure_sealevel;temperature;humidity
60244;BME280;46106;51.468;5.814;2023-02-12T00:01:00;103512.91;;;7.15;100.00
60244;BME280;46106;51.468;5.814;2023-02-12T00:03:25;103502.09;;;7.11;100.00
60244;BME280;46106;51.468;5.814;2023-02-12T00:05:51;103508.41;;;7.13;100.00
60244;BME280;46106;51.468;5.814;2023-02-12T00:08:16;103503.75;;;7.18;100.00
60244;BME280;46106;51.468;5.814;2023-02-12T00:10:43;103513.78;;;7.16;100.00
60244;BME280;46106;51.468;5.814;2023-02-12T00:13:12;103502.13;;;7.09;100.00
60244;BME280;46106;51.468;5.814;2023-02-12T00:15:42;103508.34;;;7.16;100.00
60244;BME280;46106;51.468;5.814;2023-02-12T00:18:09;103517.28;;;7.23;100.00
60244;BME280;46106;51.468;5.814;2023-02-12T00:20:36;103515.59;;;7.17;100.00
60244;BME280;46106;51.468;5.814;2023-02-12T00:23:02;103515.66;;;7.14;100.00
60244;BME280;46106;51.468;5.814;2023-02-12T00:25:28;103515.59;;;7.17;100.00
60244;BME280;46106;51.468;5.814;2023-02-12T00:27:53;103523.72;;;7.20;100.00
60244;BME280;46106;51.468;5.814;2023-02-12T00:30:19;103512.03;;;7.15;100.00
60244;BME280;46106;51.468;5.814;2023-02-12T00:32:45;103508.31;;;7.17;100.00
60244;BME280;46106;51.468;5.814;2023-02-12T00:35:11;103508.50;;;7.08;100.00
60244;BME280;46106;51.468;5.814;2023-02-12T00:37:36;103513.13;;;7.05;100.00
60244;BME280;46106;51.468;5.814;2023-02-12T00:40:03;103516.56;;;7.14;100.00
60244;BME280;46106;51.468;5.814;2023-02-12T00:42:29;103512.09;;;7.12;100.00
60244;BME280;46106;51.468;5.814;2023-02-12T00:44:54;103502.28;;;7.02;100.00
60244;BME280;46106;51.468;5.814;2023-02-12T00:47:20;103490.47;;;7.03;100.00
60244;BME280;46106;51.468;5.814;2023-02-12T00:49:45;103515.66;;;7.14;100.00
60244;BME280;46106;51.468;5.814;2023-02-12T00:52:11;103515.91;;;7.02;100.00
60244;BME280;46106;51.468;5.814;2023-02-12T00:54:36;103518.66;;;7.00;100.00
60244;BME280;46106;51.468;5.814;2023-02-12T00:57:02;103524.09;;;7.02;100.00
60244;BME280;46106;51.468;5.814;2023-02-12T00:59:28;103526.75;;;7.05;100.00
60244;BME280;46106;51.468;5.814;2023-02-12T01:01:54;103523.00;;;7.10;100.00
60244;BME280;46106;51.468;5.814;2023-02-12T01:04:21;103518.31;;;7.17;100.00
60244;BME280;46106;51.468;5.814;2023-02-12T01:06:47;103509.16;;;7.20;100.00
60244;BME280;46106;51.468;5.814;2023-02-12T01:09:12;103522.75;;;7.21;100.00
60244;BME280;46106;51.468;5.814;2023-02-12T01:11:38;103507.50;;;7.14;100.00
60244;BME280;46106;51.468;5.814;2023-02-12T01:14:06;103505.66;;;7.14;100.00
60244;BME280;46106;51.468;5.814;2023-02-12T01:16:32;103503.13;;;7.07;100.00
60244;BME280;46106;51.468;5.814;2023-02-12T01:19:02;103517.72;;;7.03;100.00
60244;BME280;46106;51.468;5.814;2023-02-12T01:21:32;103508.63;;;7.04;100.00
60244;BME280;46106;51.468;5.814;2023-02-12T01:23:59;103501.63;;;6.90;100.00
60244;BME280;46106;51.468;5.814;2023-02-12T01:26:25;103506.09;;;6.94;100.00
60244;BME280;46106;51.468;5.814;2023-02-12T01:28:53;103507.75;;;7.02;100.00
60244;BME280;46106;51.468;5.814;2023-02-12T01:31:21;103506.78;;;7.04;100.00
60244;BME280;46106;51.468;5.814;2023-02-12T01:33:48;103501.72;;;6.87;100.00
60244;BME280;46106;51.468;5.814;2023-02-12T01:36:14;103505.38;;;6.85;100.00
60244;BME280;46106;51.468;5.814;2023-02-12T01:38:40;103498.13;;;6.84;100.00
60244;BME280;46106;51.468;5.814;2023-02-12T01:41:11;103494.50;;;6.85;100.00
60244;BME280;46106;51.468;5.814;2023-02-12T01:43:37;103499.69;;;6.97;100.00
60244;BME280;46106;51.468;5.814;2023-02-12T01:46:05;103513.13;;;7.05;100.00
60244;BME280;46106;51.468;5.814;2023-02-12T01:48:42;103507.88;;;6.97;100.00
60244;BME280;46106;51.468;5.814;2023-02-12T01:51:13;103502.50;;;6.92;100.00
60244;BME280;46106;51.468;5.814;2023-02-12T01:53:46;103495.28;;;6.90;100.00
60244;BME280;46106;51.468;5.814;2023-02-12T01:56:13;103493.41;;;6.92;100.00
60244;BME280;46106;51.468;5.814;2023-02-12T01:58:42;103503.22;;;7.02;100.00
60244;BME280;46106;51.468;5.814;2023-02-12T02:01:15;103499.50;;;7.05;100.00
60244;BME280;46106;51.468;5.814;2023-02-12T02:03:44;103486.97;;;6.97;100.00
60244;BME280;46106;51.468;5.814;2023-02-12T02:06:20;103494.75;;;6.72;100.00
60244;BME280;46106;51.468;5.814;2023-02-12T02:08:47;103492.84;;;6.77;100.00
60244;BME280;46106;51.468;5.814;2023-02-12T02:11:15;103499.34;;;6.69;100.00
60244;BME280;46106;51.468;5.814;2023-02-12T02:14:10;103483.81;;;6.74;100.00
60244;BME280;46106;51.468;5.814;2023-02-12T02:19:53;103498.31;;;6.76;100.00
60244;BME280;46106;51.468;5.814;2023-02-12T02:22:33;103493.72;;;6.78;100.00
60244;BME280;46106;51.468;5.814;2023-02-12T02:44:38;103483.31;;;6.53;100.00
60244;BME280;46106;51.468;5.814;2023-02-12T02:47:10;103477.03;;;6.51;100.00
60244;BME280;46106;51.468;5.814;2023-02-12T02:49:44;103488.69;;;6.58;100.00
60244;BME280;46106;51.468;5.814;2023-02-12T02:52:16;103494.16;;;6.56;100.00
60244;BME280;46106;51.468;5.814;2023-02-12T02:54:47;103478.66;;;6.60;100.00
60244;BME280;46106;51.468;5.814;2023-02-12T02:57:28;103486.00;;;6.56;100.00
60244;BME280;46106;51.468;5.814;2023-02-12T03:00:03;103478.72;;;6.57;100.00
60244;BME280;46106;51.468;5.814;2023-02-12T03:02:35;103482.31;;;6.57;100.00
60244;BME280;46106;51.468;5.814;2023-02-12T03:05:28;103484.19;;;6.55;100.00
60244;BME280;46106;51.468;5.814;2023-02-12T03:08:02;103476.84;;;6.59;100.00
60244;BME280;46106;51.468;5.814;2023-02-12T03:10:35;103467.75;;;6.60;100.00
60244;BME280;46106;51.468;5.814;2023-02-12T03:13:22;103469.75;;;6.52;100.00
60244;BME280;46106;51.468;5.814;2023-02-12T03:15:59;103479.63;;;6.56;100.00
60244;BME280;46106;51.468;5.814;2023-02-12T03:18:40;103477.72;;;6.62;100.00
60244;BME280;46106;51.468;5.814;2023-02-12T03:21:14;103478.78;;;6.52;100.00
60244;BME280;46106;51.468;5.814;2023-02-12T03:23:56;103475.00;;;6.61;100.00
60244;BME280;46106;51.468;5.814;2023-02-12T03:26:35;103474.13;;;6.59;100.00
60244;BME280;46106;51.468;5.814;2023-02-12T03:29:02;103476.91;;;6.56;100.00
60244;BME280;46106;51.468;5.814;2023-02-12T03:34:49;103478.47;;;6.69;100.00
60244;BME280;46106;51.468;5.814;2023-02-12T03:37:34;103477.59;;;6.67;100.00
60244;BME280;46106;51.468;5.814;2023-02-12T03:40:17;103483.81;;;6.74;100.00
60244;BME280;46106;51.468;5.814;2023-02-12T03:45:51;103480.25;;;6.70;100.00
60244;BME280;46106;51.468;5.814;2023-02-12T03:50:59;103482.19;;;6.65;100.00
60244;BME280;46106;51.468;5.814;2023-02-12T03:53:28;103491.22;;;6.66;100.00
60244;BME280;46106;51.468;5.814;2023-02-12T03:56:00;103487.63;;;6.65;100.00
60244;BME280;46106;51.468;5.814;2023-02-12T03:58:28;103483.16;;;6.62;100.00
60244;BME280;46106;51.468;5.814;2023-02-12T04:00:59;103487.66;;;6.63;100.00
60244;BME280;46106;51.468;5.814;2023-02-12T04:03:25;103484.91;;;6.65;100.00
60244;BME280;46106;51.468;5.814;2023-02-12T04:05:51;103473.13;;;6.65;100.00
60244;BME280;46106;51.468;5.814;2023-02-12T04:08:17;103466.78;;;6.64;100.00
60244;BME280;46106;51.468;5.814;2023-02-12T04:10:50;103480.50;;;6.59;100.00
60244;BME280;46106;51.468;5.814;2023-02-12T04:13:31;103478.63;;;6.61;100.00
60244;BME280;46106;51.468;5.814;2023-02-12T04:18:55;103480.47;;;6.61;100.00
60244;BME280;46106;51.468;5.814;2023-02-12T04:21:59;103482.34;;;6.56;100.00
60244;BME280;46106;51.468;5.814;2023-02-12T04:27:24;103488.69;;;6.58;100.00
60244;BME280;46106;51.468;5.814;2023-02-12T04:32:29;103495.94;;;6.57;100.00
60244;BME280;46106;51.468;5.814;2023-02-12T04:37:52;103498.66;;;6.57;100.00
60244;BME280;46106;51.468;5.814;2023-02-12T04:40:20;103503.19;;;6.58;100.00
60244;BME280;46106;51.468;5.814;2023-02-12T04:42:51;103513.28;;;6.52;100.00
60244;BME280;46106;51.468;5.814;2023-02-12T04:45:36;103519.47;;;6.60;100.00
60244;BME280;46106;51.468;5.814;2023-02-12T04:48:03;103512.41;;;6.51;100.00
60244;BME280;46106;51.468;5.814;2023-02-12T04:50:38;103510.63;;;6.49;100.00
60244;BME280;46106;51.468;5.814;2023-02-12T04:53:04;103507.03;;;6.47;100.00
60244;BME280;46106;51.468;5.814;2023-02-12T04:55:30;103504.28;;;6.48;100.00
60244;BME280;46106;51.468;5.814;2023-02-12T04:57:55;103516.97;;;6.49;100.00
60244;BME280;46106;51.468;5.814;2023-02-12T05:00:22;103516.06;;;6.49;100.00
60244;BME280;46106;51.468;5.814;2023-02-12T05:02:47;103503.44;;;6.46;100.00
60244;BME280;46106;51.468;5.814;2023-02-12T05:05:14;103513.19;;;6.58;100.00
60244;BME280;46106;51.468;5.814;2023-02-12T05:07:39;103505.81;;;6.63;100.00
60244;BME280;46106;51.468;5.814;2023-02-12T05:10:05;103505.91;;;6.58;100.00
60244;BME280;46106;51.468;5.814;2023-02-12T05:12:31;103510.44;;;6.59;100.00
60244;BME280;46106;51.468;5.814;2023-02-12T05:14:56;103506.00;;;6.52;100.00
60244;BME280;46106;51.468;5.814;2023-02-12T05:17:23;103498.03;;;6.43;100.00
60244;BME280;46106;51.468;5.814;2023-02-12T05:19:50;103516.00;;;6.52;100.00
60244;BME280;46106;51.468;5.814;2023-02-12T05:22:16;103511.47;;;6.51;100.00
60244;BME280;46106;51.468;5.814;2023-02-12T05:24:42;103513.25;;;6.53;100.00
60244;BME280;46106;51.468;5.814;2023-02-12T05:27:08;103515.19;;;6.48;100.00
60244;BME280;46106;51.468;5.814;2023-02-12T05:29:35;103506.91;;;6.54;100.00
60244;BME280;46106;51.468;5.814;2023-02-12T05:32:01;103514.00;;;6.61;100.00
60244;BME280;46106;51.468;5.814;2023-02-12T05:34:27;103504.97;;;6.61;100.00
60244;BME280;46106;51.468;5.814;2023-02-12T05:36:52;103511.38;;;6.57;100.00
60244;BME280;46106;51.468;5.814;2023-02-12T05:39:17;103504.31;;;6.47;100.00
60244;BME280;46106;51.468;5.814;2023-02-12T05:41:43;103513.28;;;6.52;100.00
60244;BME280;46106;51.468;5.814;2023-02-12T05:44:09;103517.78;;;6.54;100.00
60244;BME280;46106;51.468;5.814;2023-02-12T05:46:36;103516.81;;;6.57;100.00
60244;BME280;46106;51.468;5.814;2023-02-12T05:49:02;103521.25;;;6.62;100.00
60244;BME280;46106;51.468;5.814;2023-02-12T05:51:28;103511.47;;;6.51;100.00
60244;BME280;46106;51.468;5.814;2023-02-12T05:53:57;103523.25;;;6.54;100.00
60244;BME280;46106;51.468;5.814;2023-02-12T05:56:29;103521.63;;;6.42;100.00
60244;BME280;46106;51.468;5.814;2023-02-12T05:59:00;103516.28;;;6.38;100.00
60244;BME280;46106;51.468;5.814;2023-02-12T06:01:33;103521.63;;;6.42;100.00
60244;BME280;46106;51.468;5.814;2023-02-12T06:04:00;103522.31;;;6.54;100.00
60244;BME280;46106;51.468;5.814;2023-02-12T06:06:27;103528.72;;;6.53;100.00
60244;BME280;46106;51.468;5.814;2023-02-12T06:08:53;103540.47;;;6.53;100.00
60244;BME280;46106;51.468;5.814;2023-02-12T06:11:19;103530.59;;;6.48;100.00
60244;BME280;46106;51.468;5.814;2023-02-12T06:13:45;103534.19;;;6.51;100.00
60244;BME280;46106;51.468;5.814;2023-02-12T06:16:22;103530.66;;;6.46;100.00
60244;BME280;46106;51.468;5.814;2023-02-12T06:18:49;103544.16;;;6.51;100.00
60244;BME280;46106;51.468;5.814;2023-02-12T06:21:16;103534.31;;;6.43;100.00
60244;BME280;46106;51.468;5.814;2023-02-12T06:23:42;103538.81;;;6.46;100.00
60244;BME280;46106;51.468;5.814;2023-02-12T06:26:07;103536.03;;;6.48;100.00
60244;BME280;46106;51.468;5.814;2023-02-12T06:28:33;103541.41;;;6.51;100.00
60244;BME280;46106;51.468;5.814;2023-02-12T06:30:59;103534.25;;;6.47;100.00
60244;BME280;46106;51.468;5.814;2023-02-12T06:33:25;103542.41;;;6.47;100.00
60244;BME280;46106;51.468;5.814;2023-02-12T06:35:50;103541.47;;;6.48;100.00
60244;BME280;46106;51.468;5.814;2023-02-12T06:38:16;103530.75;;;6.40;100.00
60244;BME280;46106;51.468;5.814;2023-02-12T06:40:41;103535.19;;;6.44;100.00
60244;BME280;46106;51.468;5.814;2023-02-12T06:43:07;103544.94;;;6.56;100.00
60244;BME280;46106;51.468;5.814;2023-02-12T06:45:33;103535.09;;;6.50;100.00
60244;BME280;46106;51.468;5.814;2023-02-12T06:48:00;103540.53;;;6.50;100.00
60244;BME280;46106;51.468;5.814;2023-02-12T06:50:26;103546.81;;;6.54;100.00
60244;BME280;46106;51.468;5.814;2023-02-12T06:52:51;103542.41;;;6.47;100.00
60244;BME280;46106;51.468;5.814;2023-02-12T06:55:17;103546.84;;;6.52;100.00
60244;BME280;46106;51.468;5.814;2023-02-12T06:57:43;103549.78;;;6.41;100.00
60244;BME280;46106;51.468;5.814;2023-02-12T07:00:09;103552.44;;;6.44;100.00
60244;BME280;46106;51.468;5.814;2023-02-12T07:02:35;103556.78;;;6.55;100.00
60244;BME280;46106;51.468;5.814;2023-02-12T07:05:00;103546.78;;;6.55;100.00
60244;BME280;46106;51.468;5.814;2023-02-12T07:07:25;103555.84;;;6.56;100.00
60244;BME280;46106;51.468;5.814;2023-02-12T07:09:51;103550.69;;;6.40;100.00
60244;BME280;46106;51.468;5.814;2023-02-12T07:12:17;103555.28;;;6.38;100.00
60244;BME280;46106;51.468;5.814;2023-02-12T07:14:44;103556.00;;;6.48;100.00
60244;BME280;46106;51.468;5.814;2023-02-12T07:17:09;103547.97;;;6.40;100.00
60244;BME280;46106;51.468;5.814;2023-02-12T07:19:35;103553.22;;;6.53;100.00
60244;BME280;46106;51.468;5.814;2023-02-12T07:22:01;103566.91;;;6.47;100.00
60244;BME280;46106;51.468;5.814;2023-02-12T07:24:27;103546.13;;;6.42;100.00
60244;BME280;46106;51.468;5.814;2023-02-12T07:26:52;103564.66;;;6.70;100.00
60244;BME280;46106;51.468;5.814;2023-02-12T07:29:18;103566.69;;;6.57;100.00
60244;BME280;46106;51.468;5.814;2023-02-12T07:31:43;103573.13;;;6.55;100.00
60244;BME280;46106;51.468;5.814;2023-02-12T07:34:09;103581.41;;;6.47;100.00
60244;BME280;46106;51.468;5.814;2023-02-12T07:36:35;103580.47;;;6.50;100.00
60244;BME280;46106;51.468;5.814;2023-02-12T07:39:01;103582.97;;;6.62;100.00
60244;BME280;46106;51.468;5.814;2023-02-12T07:41:32;103584.66;;;6.69;100.00
60244;BME280;46106;51.468;5.814;2023-02-12T07:44:00;103582.03;;;6.63;100.00
60244;BME280;46106;51.468;5.814;2023-02-12T07:46:31;103578.41;;;6.64;100.00
60244;BME280;46106;51.468;5.814;2023-02-12T07:48:59;103579.44;;;6.57;100.00
60244;BME280;46106;51.468;5.814;2023-02-12T07:51:26;103575.81;;;6.56;100.00
60244;BME280;46106;51.468;5.814;2023-02-12T07:53:52;103583.94;;;6.58;100.00
60244;BME280;46106;51.468;5.814;2023-02-12T07:56:20;103580.31;;;6.57;100.00
60244;BME280;46106;51.468;5.814;2023-02-12T07:58:48;103579.31;;;6.63;100.00
60244;BME280;46106;51.468;5.814;2023-02-12T08:01:18;103582.97;;;6.62;100.00
60244;BME280;46106;51.468;5.814;2023-02-12T08:03:45;103581.03;;;6.67;100.00
60244;BME280;46106;51.468;5.814;2023-02-12T08:06:14;103590.06;;;6.72;100.00
60244;BME280;46106;51.468;5.814;2023-02-12T08:08:40;103590.06;;;6.72;100.00
60244;BME280;46106;51.468;5.814;2023-02-12T08:11:07;103587.31;;;6.72;100.00
60244;BME280;46106;51.468;5.814;2023-02-12T08:13:34;103589.19;;;6.69;100.00
60244;BME280;46106;51.468;5.814;2023-02-12T08:16:09;103593.63;;;6.74;100.00
60244;BME280;46106;51.468;5.814;2023-02-12T08:18:35;103588.22;;;6.73;100.00
60244;BME280;46106;51.468;5.814;2023-02-12T08:21:06;103601.84;;;6.71;100.00
60244;BME280;46106;51.468;5.814;2023-02-12T08:23:32;103600.75;;;6.81;100.00
60244;BME280;46106;51.468;5.814;2023-02-12T08:26:09;103604.31;;;6.85;100.00
60244;BME280;46106;51.468;5.814;2023-02-12T08:28:36;103609.00;;;6.77;100.00
60244;BME280;46106;51.468;5.814;2023-02-12T08:31:04;103608.84;;;6.86;100.00
60244;BME280;46106;51.468;5.814;2023-02-12T08:33:30;103600.47;;;6.97;100.00
60244;BME280;46106;51.468;5.814;2023-02-12T08:38:33;103603.09;;;7.00;100.00
60244;BME280;46106;51.468;5.814;2023-02-12T08:41:05;103605.97;;;6.94;100.00
60244;BME280;46106;51.468;5.814;2023-02-12T08:43:32;103610.34;;;7.03;100.00
60244;BME280;46106;51.468;5.814;2023-02-12T08:46:06;103613.25;;;6.92;100.00
60244;BME280;46106;51.468;5.814;2023-02-12T08:48:32;103591.56;;;6.89;100.00
60244;BME280;46106;51.468;5.814;2023-02-12T08:51:06;103609.22;;;7.13;100.00
60244;BME280;46106;51.468;5.814;2023-02-12T08:53:32;103619.34;;;7.06;100.00
60244;BME280;46106;51.468;5.814;2023-02-12T08:55:58;103604.69;;;7.13;100.00
60244;BME280;46106;51.468;5.814;2023-02-12T08:58:25;103610.59;;;7.34;100.00
60244;BME280;46106;51.468;5.814;2023-02-12T09:00:51;103608.88;;;7.31;100.00
60244;BME280;46106;51.468;5.814;2023-02-12T09:03:16;103608.16;;;7.22;100.00
60244;BME280;46106;51.468;5.814;2023-02-12T09:05:42;103620.03;;;7.17;100.00
60244;BME280;46106;51.468;5.814;2023-02-12T09:08:08;103602.88;;;7.12;100.00
60244;BME280;46106;51.468;5.814;2023-02-12T09:10:41;103614.56;;;7.17;100.00
60244;BME280;46106;51.468;5.814;2023-02-12T09:13:08;103610.75;;;7.26;100.00
60244;BME280;46106;51.468;5.814;2023-02-12T09:15:36;103610.59;;;7.34;100.00
60244;BME280;46106;51.468;5.814;2023-02-12T09:18:02;103618.88;;;7.29;100.00
60244;BME280;46106;51.468;5.814;2023-02-12T09:20:29;103616.31;;;7.23;100.00
60244;BME280;46106;51.468;5.814;2023-02-12T09:22:55;103620.50;;;7.40;100.00
60244;BME280;46106;51.468;5.814;2023-02-12T09:25:20;103636.09;;;7.33;100.00
60244;BME280;46106;51.468;5.814;2023-02-12T09:27:45;103634.09;;;7.41;100.00
60244;BME280;46106;51.468;5.814;2023-02-12T09:30:11;103629.53;;;7.42;100.00
60244;BME280;46106;51.468;5.814;2023-02-12T09:32:38;103631.16;;;7.50;100.00
60244;BME280;46106;51.468;5.814;2023-02-12T09:35:04;103634.19;;;7.36;100.00
60244;BME280;46106;51.468;5.814;2023-02-12T09:37:31;103630.72;;;7.28;100.00
60244;BME280;46106;51.468;5.814;2023-02-12T09:39:57;103632.41;;;7.34;100.00
60244;BME280;46106;51.468;5.814;2023-02-12T09:45:35;103637.66;;;7.45;100.00
60244;BME280;46106;51.468;5.814;2023-02-12T09:50:59;103637.69;;;7.43;100.00
60244;BME280;46106;51.468;5.814;2023-02-12T09:53:29;103625.84;;;7.43;100.00
60244;BME280;46106;51.468;5.814;2023-02-12T09:55:55;103639.31;;;7.52;100.00
60244;BME280;46106;51.468;5.814;2023-02-12T09:58:46;103643.97;;;7.47;100.00
60244;BME280;46106;51.468;5.814;2023-02-12T10:01:17;103631.03;;;7.57;100.00
60244;BME280;46106;51.468;5.814;2023-02-12T10:03:45;103640.84;;;7.65;100.00
60244;BME280;46106;51.468;5.814;2023-02-12T10:06:18;103641.56;;;7.73;100.00
60244;BME280;46106;51.468;5.814;2023-02-12T10:12:36;103651.88;;;8.00;100.00
60244;BME280;46106;51.468;5.814;2023-02-12T10:15:12;103645.41;;;8.05;100.00
60244;BME280;46106;51.468;5.814;2023-02-12T10:18:22;103641.00;;;7.98;100.00
60244;BME280;46106;51.468;5.814;2023-02-12T10:26:29;103644.25;;;8.16;100.00
60244;BME280;46106;51.468;5.814;2023-02-12T10:28:58;103647.75;;;8.21;100.00
60244;BME280;46106;51.468;5.814;2023-02-12T10:33:54;103640.94;;;8.39;100.00
60244;BME280;46106;51.468;5.814;2023-02-12T10:36:43;103652.50;;;8.52;100.00
60244;BME280;46106;51.468;5.814;2023-02-12T10:41:38;103639.69;;;8.54;100.00
60244;BME280;46106;51.468;5.814;2023-02-12T10:44:05;103642.47;;;8.52;100.00
60244;BME280;46106;51.468;5.814;2023-02-12T10:46:31;103644.66;;;8.72;100.00
60244;BME280;46106;51.468;5.814;2023-02-12T10:48:58;103644.56;;;8.77;100.00
60244;BME280;46106;51.468;5.814;2023-02-12T10:57:25;103640.97;;;8.75;100.00
60244;BME280;46106;51.468;5.814;2023-02-12T10:59:53;103636.97;;;8.88;100.00
60244;BME280;46106;51.468;5.814;2023-02-12T11:02:32;103639.47;;;8.97;100.00
60244;BME280;46106;51.468;5.814;2023-02-12T11:05:00;103644.97;;;8.96;100.00
60244;BME280;46106;51.468;5.814;2023-02-12T11:07:49;103628.22;;;8.75;100.00
60244;BME280;46106;51.468;5.814;2023-02-12T11:10:27;103642.63;;;8.80;100.00
60244;BME280;46106;51.468;5.814;2023-02-12T11:12:53;103632.47;;;8.87;100.00
60244;BME280;46106;51.468;5.814;2023-02-12T11:15:22;103626.97;;;8.89;100.00
60244;BME280;46106;51.468;5.814;2023-02-12T11:18:07;103644.53;;;8.78;100.00
60244;BME280;46106;51.468;5.814;2023-02-12T11:20:51;103632.31;;;8.92;100.00
60244;BME280;46106;51.468;5.814;2023-02-12T11:23:38;103629.47;;;8.96;100.00
60244;BME280;46106;51.468;5.814;2023-02-12T11:31:25;103620.63;;;8.87;100.00
60244;BME280;46106;51.468;5.814;2023-02-12T11:36:56;103613.00;;;8.99;100.00
60244;BME280;46106;51.468;5.814;2023-02-12T11:39:27;103614.00;;;8.97;100.00
60244;BME280;46106;51.468;5.814;2023-02-12T11:41:59;103612.22;;;8.94;100.00
60244;BME280;46106;51.468;5.814;2023-02-12T11:44:29;103614.75;;;9.02;100.00
60244;BME280;46106;51.468;5.814;2023-02-12T11:47:02;103608.41;;;9.00;100.00
60244;BME280;46106;51.468;5.814;2023-02-12T11:49:47;103599.16;;;9.06;100.00
60244;BME280;46106;51.468;5.814;2023-02-12T11:52:20;103607.19;;;9.12;100.00
60244;BME280;46106;51.468;5.814;2023-02-12T11:54:49;103599.31;;;8.99;100.00
60244;BME280;46106;51.468;5.814;2023-02-12T11:57:44;103602.78;;;9.06;100.00
60244;BME280;46106;51.468;5.814;2023-02-12T12:00:13;103601.31;;;9.26;100.00
60244;BME280;46106;51.468;5.814;2023-02-12T12:02:44;103595.63;;;9.02;100.00
60244;BME280;46106;51.468;5.814;2023-02-12T12:05:18;103584.78;;;8.99;100.00
60244;BME280;46106;51.468;5.814;2023-02-12T12:07:49;103588.63;;;8.90;100.00
60244;BME280;46106;51.468;5.814;2023-02-12T12:10:24;103591.00;;;9.04;100.00
60244;BME280;46106;51.468;5.814;2023-02-12T12:13:01;103587.06;;;9.14;100.00
60244;BME280;46106;51.468;5.814;2023-02-12T12:15:35;103591.97;;;9.01;100.00
60244;BME280;46106;51.468;5.814;2023-02-12T12:23:58;103575.03;;;9.22;100.00
60244;BME280;46106;51.468;5.814;2023-02-12T12:26:25;103591.25;;;9.26;100.00
60244;BME280;46106;51.468;5.814;2023-02-12T12:29:00;103574.19;;;9.18;100.00
60244;BME280;46106;51.468;5.814;2023-02-12T12:31:31;103560.38;;;8.91;100.00
60244;BME280;46106;51.468;5.814;2023-02-12T12:34:04;103575.38;;;9.09;100.00
60244;BME280;46106;51.468;5.814;2023-02-12T12:58:44;103550.75;;;9.09;100.00
60244;BME280;46106;51.468;5.814;2023-02-12T13:04:52;103550.75;;;9.09;100.00
60244;BME280;46106;51.468;5.814;2023-02-12T13:10:54;103530.19;;;9.27;100.00
60244;BME280;46106;51.468;5.814;2023-02-12T13:18:41;103523.03;;;9.23;100.00
60244;BME280;46106;51.468;5.814;2023-02-12T13:26:57;103525.25;;;9.10;100.00
60244;BME280;46106;51.468;5.814;2023-02-12T13:32:15;103523.91;;;8.94;100.00
60244;BME280;46106;51.468;5.814;2023-02-12T13:34:44;103522.00;;;8.96;100.00
60244;BME280;46106;51.468;5.814;2023-02-12T13:37:18;103520.00;;;9.02;100.00
60244;BME280;46106;51.468;5.814;2023-02-12T13:39:47;103520.91;;;9.01;100.00
60244;BME280;46106;51.468;5.814;2023-02-12T13:45:05;103520.03;;;9.01;100.00
60244;BME280;46106;51.468;5.814;2023-02-12T13:47:58;103515.09;;;9.14;100.00
60244;BME280;46106;51.468;5.814;2023-02-12T13:50:57;103512.50;;;9.09;100.00
60244;BME280;46106;51.468;5.814;2023-02-12T13:59:02;103513.97;;;8.90;100.00
60244;BME280;46106;51.468;5.814;2023-02-12T14:01:42;103522.69;;;9.04;100.00
60244;BME280;46106;51.468;5.814;2023-02-12T14:04:15;103513.34;;;9.11;100.00
60244;BME280;46106;51.468;5.814;2023-02-12T14:07:11;103504.97;;;9.17;100.00
60244;BME280;46106;51.468;5.814;2023-02-12T14:15:05;103516.28;;;9.05;100.00
60244;BME280;46106;51.468;5.814;2023-02-12T14:25:00;103487.91;;;9.09;100.00
60244;BME280;46106;51.468;5.814;2023-02-12T14:27:34;103491.38;;;9.14;100.00
60244;BME280;46106;51.468;5.814;2023-02-12T14:37:52;103493.16;;;9.17;100.00
60244;BME280;46106;51.468;5.814;2023-02-12T14:43:01;103491.47;;;9.11;100.00
60244;BME280;46106;51.468;5.814;2023-02-12T14:45:35;103481.69;;;9.04;100.00
60244;BME280;46106;51.468;5.814;2023-02-12T14:48:03;103496.72;;;8.89;100.00
60244;BME280;46106;51.468;5.814;2023-02-12T14:50:42;103487.91;;;8.78;100.00
60244;BME280;46106;51.468;5.814;2023-02-12T14:53:22;103502.13;;;8.91;100.00
60244;BME280;46106;51.468;5.814;2023-02-12T14:55:50;103493.19;;;8.86;100.00
60244;BME280;46106;51.468;5.814;2023-02-12T14:58:19;103484.94;;;8.87;100.00
60244;BME280;46106;51.468;5.814;2023-02-12T15:00:46;103491.44;;;8.81;100.00
60244;BME280;46106;51.468;5.814;2023-02-12T15:05:48;103488.22;;;8.98;100.00
60244;BME280;46106;51.468;5.814;2023-02-12T15:08:22;103484.88;;;8.89;100.00
60244;BME280;46106;51.468;5.814;2023-02-12T15:13:53;103484.00;;;8.87;100.00
60244;BME280;46106;51.468;5.814;2023-02-12T15:19:42;103482.91;;;8.94;100.00
60244;BME280;46106;51.468;5.814;2023-02-12T15:22:33;103482.03;;;8.92;100.00
60244;BME280;46106;51.468;5.814;2023-02-12T15:25:21;103481.25;;;8.88;100.00
60244;BME280;46106;51.468;5.814;2023-02-12T15:27:49;103477.63;;;8.88;100.00
60244;BME280;46106;51.468;5.814;2023-02-12T15:30:16;103477.59;;;8.89;100.00
60244;BME280;46106;51.468;5.814;2023-02-12T15:32:45;103479.59;;;8.82;100.00
60244;BME280;46106;51.468;5.814;2023-02-12T15:35:35;103471.63;;;8.75;100.00
60244;BME280;46106;51.468;5.814;2023-02-12T15:38:03;103463.50;;;8.72;100.00
60244;BME280;46106;51.468;5.814;2023-02-12T15:40:32;103473.59;;;8.70;100.00
60244;BME280;46106;51.468;5.814;2023-02-12T15:43:15;103479.19;;;8.65;100.00
60244;BME280;46106;51.468;5.814;2023-02-12T15:45:48;103482.53;;;8.75;100.00
60244;BME280;46106;51.468;5.814;2023-02-12T15:48:19;103469.00;;;8.70;100.00
60244;BME280;46106;51.468;5.814;2023-02-12T15:53:16;103461.81;;;8.68;100.00
60244;BME280;46106;51.468;5.814;2023-02-12T15:55:45;103456.28;;;8.71;100.00
60244;BME280;46106;51.468;5.814;2023-02-12T15:58:23;103466.16;;;8.75;100.00